createdAt,value
2023-06-29T00:00:58.511Z,98483.31
2023-06-29T00:04:00.300Z,98475.66
2023-06-29T00:07:04.202Z,98482.81
2023-06-29T00:10:07.385Z,98480.47
2023-06-29T00:13:08.798Z,98478.81
2023-06-29T00:16:10.300Z,98480.25
2023-06-29T00:19:15.711Z,98479.78
2023-06-29T00:22:20.074Z,98470.47
2023-06-29T00:25:21.587Z,98478.94
2023-06-29T00:28:23.227Z,98481.19
2023-06-29T00:31:25.630Z,98485.16
2023-06-29T00:34:27.229Z,98479.41
2023-06-29T00:37:28.708Z,98480.38
2023-06-29T00:40:30.300Z,98474.56
2023-06-29T00:43:31.885Z,98467.09
2023-06-29T00:46:33.476Z,98475.22
2023-06-29T00:49:35.258Z,98473.88
2023-06-29T00:52:37.088Z,98468.25
2023-06-29T00:55:39.161Z,98465.53
2023-06-29T00:58:40.664Z,98473.53
2023-06-29T01:01:44.231Z,98459.97
2023-06-29T01:04:46.877Z,98464.47
2023-06-29T01:08:06.868Z,98461.03
2023-06-29T01:11:09.021Z,98465.19
2023-06-29T01:14:12.622Z,98461.06
2023-06-29T01:17:21.225Z,98457.53
2023-06-29T01:20:27.511Z,98462.00
2023-06-29T01:23:37.726Z,98462.50
2023-06-29T01:26:39.641Z,98459.50
2023-06-29T01:29:42.128Z,98460.63
2023-06-29T01:32:43.606Z,98463.66
2023-06-29T01:35:45.863Z,98456.50
2023-06-29T01:39:00.053Z,98452.63
2023-06-29T01:42:02.207Z,98450.59
2023-06-29T01:45:05.816Z,98453.06
2023-06-29T01:48:07.696Z,98451.56
2023-06-29T01:51:10.079Z,98461.22
2023-06-29T01:54:11.540Z,98460.66
2023-06-29T01:57:13.948Z,98452.69
2023-06-29T02:00:15.672Z,98451.44
2023-06-29T02:03:17.331Z,98453.66
2023-06-29T02:06:18.869Z,98448.72
2023-06-29T02:09:20.305Z,98450.00
2023-06-29T02:12:21.780Z,98456.88
2023-06-29T02:15:23.235Z,98460.19
2023-06-29T02:18:24.742Z,98457.84
2023-06-29T02:21:26.424Z,98458.97
2023-06-29T02:24:27.887Z,98456.63
2023-06-29T02:27:29.363Z,98448.91
2023-06-29T02:30:30.800Z,98445.34
2023-06-29T02:33:32.276Z,98443.81
2023-06-29T02:36:33.703Z,98441.59
2023-06-29T02:39:35.134Z,98447.84
2023-06-29T02:42:37.815Z,98438.34
2023-06-29T02:45:39.319Z,98432.41
2023-06-29T02:48:40.825Z,98429.66
2023-06-29T02:51:42.359Z,98435.28
2023-06-29T02:54:43.797Z,98430.91
2023-06-29T02:57:45.264Z,98428.56
2023-06-29T03:00:46.715Z,98417.69
2023-06-29T03:03:48.162Z,98424.72
2023-06-29T03:06:49.651Z,98426.66
2023-06-29T03:09:51.115Z,98425.78
2023-06-29T03:12:52.599Z,98419.34
2023-06-29T03:15:57.789Z,98420.69
2023-06-29T03:18:59.224Z,98418.38
2023-06-29T03:22:00.695Z,98416.06
2023-06-29T03:25:02.822Z,98413.00
2023-06-29T03:28:04.540Z,98412.84
2023-06-29T03:31:06.201Z,98416.13
2023-06-29T03:34:07.760Z,98409.81
2023-06-29T03:37:09.357Z,98413.38
2023-06-29T03:40:11.481Z,98414.59
2023-06-29T03:43:12.978Z,98414.50
2023-06-29T03:46:14.563Z,98413.78
2023-06-29T03:49:16.054Z,98410.75
2023-06-29T03:52:17.482Z,98402.50
2023-06-29T03:55:19.506Z,98413.22
2023-06-29T03:58:21.232Z,98405.38
2023-06-29T04:01:22.849Z,98412.41
2023-06-29T04:04:24.291Z,98401.41
2023-06-29T04:07:25.782Z,98404.44
2023-06-29T04:10:27.269Z,98407.44
2023-06-29T04:13:28.698Z,98411.16
2023-06-29T04:16:30.175Z,98407.59
2023-06-29T04:19:31.701Z,98411.97
2023-06-29T04:22:33.145Z,98409.06
2023-06-29T04:25:34.595Z,98406.63
2023-06-29T04:28:36.983Z,98399.19
2023-06-29T04:31:38.624Z,98403.47
2023-06-29T04:34:40.060Z,98399.31
2023-06-29T04:37:44.320Z,98404.00
2023-06-29T04:40:45.812Z,98390.38
2023-06-29T04:43:48.871Z,98395.88
2023-06-29T04:46:50.421Z,98390.97
2023-06-29T04:49:52.565Z,98397.56
2023-06-29T04:52:59.604Z,98397.81
2023-06-29T04:56:04.988Z,98395.06
2023-06-29T04:59:06.423Z,98390.81
2023-06-29T05:02:07.983Z,98398.94
2023-06-29T05:05:09.775Z,98399.53
2023-06-29T05:08:11.340Z,98398.81
2023-06-29T05:11:12.775Z,98400.06
2023-06-29T05:14:14.425Z,98394.69
2023-06-29T05:17:16.271Z,98396.78
2023-06-29T05:20:18.706Z,98393.44
2023-06-29T05:23:20.461Z,98387.25
2023-06-29T05:26:23.025Z,98395.78
2023-06-29T05:29:25.218Z,98396.59
2023-06-29T05:32:27.757Z,98399.91
2023-06-29T05:35:29.214Z,98401.69
2023-06-29T05:38:30.878Z,98398.06
2023-06-29T05:41:32.511Z,98392.28
2023-06-29T05:44:33.927Z,98388.94
2023-06-29T05:47:35.385Z,98387.44
2023-06-29T05:50:36.949Z,98386.31
2023-06-29T05:53:38.405Z,98387.41
2023-06-29T05:56:39.876Z,98386.00
2023-06-29T05:59:41.352Z,98381.56
2023-06-29T06:02:42.849Z,98384.44
2023-06-29T06:05:44.341Z,98375.66
2023-06-29T06:08:45.767Z,98380.28
2023-06-29T06:11:48.361Z,98381.19
2023-06-29T06:14:49.954Z,98384.13
2023-06-29T06:17:51.729Z,98378.16
2023-06-29T06:20:53.220Z,98376.44
2023-06-29T06:23:54.804Z,98377.47
2023-06-29T06:26:56.294Z,98371.88
2023-06-29T06:29:57.777Z,98373.50
2023-06-29T06:33:02.300Z,98371.81
2023-06-29T06:36:05.116Z,98374.97
2023-06-29T06:39:06.740Z,98370.31
2023-06-29T06:42:08.393Z,98363.75
2023-06-29T06:45:10.228Z,98366.44
2023-06-29T06:48:12.329Z,98369.16
2023-06-29T06:51:13.855Z,98372.47
2023-06-29T06:54:15.260Z,98377.47
2023-06-29T06:57:16.721Z,98368.50
2023-06-29T07:00:18.713Z,98367.28
2023-06-29T07:03:20.394Z,98370.06
2023-06-29T07:06:24.275Z,98366.63
2023-06-29T07:09:25.710Z,98369.22
2023-06-29T07:12:27.200Z,98375.50
2023-06-29T07:15:28.632Z,98373.41
2023-06-29T07:18:31.136Z,98373.59
2023-06-29T07:21:35.217Z,98361.88
2023-06-29T07:24:36.824Z,98356.97
2023-06-29T07:27:40.257Z,98357.94
2023-06-29T07:30:41.745Z,98353.41
2023-06-29T07:33:43.298Z,98356.34
2023-06-29T07:36:44.736Z,98359.19
2023-06-29T07:39:46.179Z,98349.75
2023-06-29T07:42:47.706Z,98347.88
2023-06-29T07:45:49.235Z,98338.97
2023-06-29T07:48:53.380Z,98340.38
2023-06-29T07:51:54.956Z,98343.03
2023-06-29T07:54:56.373Z,98327.59
2023-06-29T08:01:02.521Z,98335.28
2023-06-29T08:04:05.025Z,98326.97
2023-06-29T08:07:10.117Z,98324.09
2023-06-29T08:10:12.389Z,98319.38
2023-06-29T08:13:13.900Z,98319.56
2023-06-29T08:16:15.788Z,98308.97
2023-06-29T08:19:17.406Z,98308.34
2023-06-29T08:22:18.914Z,98318.66
2023-06-29T08:25:22.267Z,98311.63
2023-06-29T08:28:23.804Z,98306.16
2023-06-29T08:31:25.460Z,98307.91
2023-06-29T08:34:26.917Z,98314.13
2023-06-29T08:37:29.462Z,98312.38
2023-06-29T08:40:32.498Z,98306.44
2023-06-29T08:43:34.224Z,98302.34
2023-06-29T08:46:38.783Z,98307.16
2023-06-29T08:49:43.097Z,98308.03
2023-06-29T08:52:45.569Z,98303.91
2023-06-29T08:55:48.549Z,98303.81
2023-06-29T08:58:50.919Z,98292.41
2023-06-29T09:01:52.854Z,98294.56
2023-06-29T09:04:54.658Z,98290.22
2023-06-29T09:07:56.549Z,98290.97
2023-06-29T09:10:58.013Z,98292.19
2023-06-29T09:13:59.487Z,98290.13
2023-06-29T09:17:02.995Z,98291.59
2023-06-29T09:20:16.493Z,98285.84
2023-06-29T09:23:18.085Z,98287.50
2023-06-29T09:26:19.690Z,98282.31
2023-06-29T09:29:21.834Z,98279.69
2023-06-29T09:32:23.420Z,98269.13
2023-06-29T09:35:24.872Z,98276.19
2023-06-29T09:38:31.092Z,98265.31
2023-06-29T09:41:32.715Z,98266.59
2023-06-29T09:44:34.200Z,98266.09
2023-06-29T09:50:43.168Z,98261.50
2023-06-29T09:53:45.258Z,98255.53
2023-06-29T09:56:48.675Z,98247.97
2023-06-29T09:59:50.803Z,98244.28
2023-06-29T10:02:52.640Z,98235.13
2023-06-29T10:06:00.849Z,98235.75
2023-06-29T10:09:03.008Z,98231.25
2023-06-29T10:12:09.234Z,98231.66
2023-06-29T10:15:15.125Z,98236.28
2023-06-29T10:18:23.924Z,98230.41
2023-06-29T10:21:25.843Z,98225.53
2023-06-29T10:24:33.705Z,98219.38
2023-06-29T10:27:36.633Z,98221.84
2023-06-29T10:30:50.293Z,98223.31
2023-06-29T10:33:52.880Z,98216.66
2023-06-29T10:37:00.812Z,98216.22
2023-06-29T10:40:06.358Z,98217.69
2023-06-29T10:43:08.502Z,98212.13
2023-06-29T10:46:10.030Z,98216.03
2023-06-29T10:49:22.364Z,98216.03
2023-06-29T10:52:25.401Z,98208.50
2023-06-29T10:55:38.079Z,98195.28
2023-06-29T10:58:40.144Z,98198.06
2023-06-29T11:01:41.865Z,98194.69
2023-06-29T11:04:43.778Z,98191.53
2023-06-29T11:07:48.348Z,98195.16
2023-06-29T11:10:50.827Z,98185.34
2023-06-29T11:13:52.319Z,98190.84
2023-06-29T11:16:55.157Z,98182.69
2023-06-29T11:19:56.650Z,98186.38
2023-06-29T11:22:58.792Z,98182.75
2023-06-29T11:26:01.586Z,98182.84
2023-06-29T11:29:07.156Z,98174.88
2023-06-29T11:32:13.658Z,98176.56
2023-06-29T11:35:15.220Z,98165.97
2023-06-29T11:38:16.804Z,98168.25
2023-06-29T11:41:18.335Z,98160.16
2023-06-29T11:44:23.517Z,98157.09
2023-06-29T11:47:33.187Z,98152.16
2023-06-29T11:50:38.209Z,98154.25
2023-06-29T11:53:40.178Z,98154.84
2023-06-29T11:56:43.531Z,98143.88
2023-06-29T11:59:46.515Z,98140.19
2023-06-29T12:02:48.065Z,98137.78
2023-06-29T12:05:51.175Z,98136.81
2023-06-29T12:08:53.492Z,98130.78
2023-06-29T12:12:03.402Z,98123.56
2023-06-29T12:15:21.886Z,98118.97
2023-06-29T12:18:29.262Z,98117.31
2023-06-29T12:21:34.871Z,98110.50
2023-06-29T12:24:36.446Z,98107.13
2023-06-29T12:27:38.610Z,98110.31
2023-06-29T12:30:41.242Z,98107.75
2023-06-29T12:33:42.688Z,98105.41
2023-06-29T12:36:44.196Z,98104.97
2023-06-29T12:39:45.697Z,98104.16
2023-06-29T12:42:47.298Z,98106.16
2023-06-29T12:45:48.748Z,98103.16
2023-06-29T12:48:50.289Z,98093.09
2023-06-29T12:51:51.749Z,98097.63
2023-06-29T12:54:53.500Z,98092.28
2023-06-29T12:57:54.936Z,98095.88
2023-06-29T13:00:56.539Z,98091.53
2023-06-29T13:03:58.237Z,98084.38
2023-06-29T13:06:59.879Z,98089.03
2023-06-29T13:10:01.545Z,98084.28
2023-06-29T13:13:03.499Z,98088.44
2023-06-29T13:16:05.206Z,98086.28
2023-06-29T13:32:20.358Z,98074.53
2023-06-29T13:35:23.095Z,98065.81
2023-06-29T13:38:24.646Z,98053.56
2023-06-29T13:41:40.042Z,98067.00
2023-06-29T13:44:41.540Z,98063.25
2023-06-29T13:47:43.444Z,98063.69
2023-06-29T13:50:44.965Z,98067.78
2023-06-29T13:53:46.377Z,98057.56
2023-06-29T13:56:48.034Z,98058.38
2023-06-29T13:59:49.548Z,98053.25
2023-06-29T14:02:52.626Z,98055.69
2023-06-29T14:05:55.092Z,98050.44
2023-06-29T14:08:56.530Z,98047.41
2023-06-29T14:11:59.753Z,98049.81
2023-06-29T14:15:01.197Z,98049.94
2023-06-29T14:18:03.442Z,98045.91
2023-06-29T14:21:04.992Z,98042.09
2023-06-29T14:24:06.511Z,98039.50
2023-06-29T14:27:08.011Z,98036.81
2023-06-29T14:30:11.927Z,98039.91
2023-06-29T14:33:27.485Z,98040.50
2023-06-29T14:36:30.027Z,98024.50
2023-06-29T14:39:31.807Z,98014.34
2023-06-29T14:42:33.891Z,98015.56
2023-06-29T14:45:35.328Z,98018.59
2023-06-29T14:48:36.786Z,98011.19
2023-06-29T14:51:38.420Z,98015.66
2023-06-29T14:54:39.886Z,98015.44
2023-06-29T14:57:41.327Z,98012.59
2023-06-29T15:03:45.099Z,97995.13
2023-06-29T15:06:52.154Z,98001.47
2023-06-29T15:09:53.852Z,97991.47
2023-06-29T15:12:55.434Z,97989.81
2023-06-29T15:15:59.284Z,97986.75
2023-06-29T15:19:01.073Z,97993.50
2023-06-29T15:22:02.732Z,97992.13
2023-06-29T15:25:04.966Z,97981.09
2023-06-29T15:28:06.728Z,97985.78
2023-06-29T15:31:08.263Z,97977.63
2023-06-29T15:34:09.853Z,97981.34
2023-06-29T15:37:11.566Z,97977.72
2023-06-29T15:40:13.702Z,97976.72
2023-06-29T15:43:15.632Z,97974.06
2023-06-29T15:46:17.339Z,97976.84
2023-06-29T15:49:18.916Z,97969.66
2023-06-29T15:52:22.897Z,97969.16
2023-06-29T15:59:47.738Z,97956.97
2023-06-29T16:02:49.305Z,97953.88
2023-06-29T16:05:50.890Z,97949.53
2023-06-29T16:08:52.554Z,97952.81
2023-06-29T16:11:54.926Z,97951.31
2023-06-29T16:15:00.080Z,97940.59
2023-06-29T16:18:01.565Z,97942.28
2023-06-29T16:21:03.052Z,97942.56
2023-06-29T16:24:04.872Z,97947.56
2023-06-29T16:27:06.374Z,97942.44
2023-06-29T16:30:08.372Z,97943.41
2023-06-29T16:33:10.017Z,97944.09
2023-06-29T16:36:11.681Z,97944.88
2023-06-29T16:39:13.584Z,97945.56
2023-06-29T16:42:15.749Z,97944.16
2023-06-29T16:45:17.451Z,97947.75
2023-06-29T16:48:19.024Z,97944.75
2023-06-29T16:51:20.647Z,97952.94
2023-06-29T16:54:22.657Z,97956.16
2023-06-29T16:57:24.149Z,97967.53
2023-06-29T17:00:25.607Z,97968.16
2023-06-29T17:03:28.214Z,97970.25
2023-06-29T17:06:30.141Z,97971.34
2023-06-29T17:09:31.589Z,97984.66
2023-06-29T17:12:33.331Z,97979.34
2023-06-29T17:15:34.871Z,97978.44
2023-06-29T17:18:36.414Z,97975.66
2023-06-29T17:21:38.900Z,97988.91
2023-06-29T17:24:41.225Z,97981.59
2023-06-29T17:27:42.736Z,97990.50
2023-06-29T17:30:44.709Z,97986.03
2023-06-29T17:33:54.894Z,97996.50
2023-06-29T17:36:57.580Z,97988.75
2023-06-29T17:39:59.002Z,97986.66
2023-06-29T17:43:00.464Z,97988.72
2023-06-29T17:46:02.023Z,97978.31
2023-06-29T17:49:03.503Z,97981.78
2023-06-29T17:52:05.325Z,97975.53
2023-06-29T17:55:07.308Z,97984.00
2023-06-29T17:58:08.751Z,97981.78
2023-06-29T18:01:10.195Z,97976.69
2023-06-29T18:04:11.875Z,97975.94
2023-06-29T18:07:13.519Z,97975.41
2023-06-29T18:10:16.109Z,97976.81
2023-06-29T18:13:17.520Z,97970.13
2023-06-29T18:16:19.098Z,97970.03
2023-06-29T18:19:21.097Z,97974.78
2023-06-29T18:22:22.613Z,97972.06
2023-06-29T18:25:24.036Z,97977.41
2023-06-29T18:28:25.575Z,97977.13
2023-06-29T18:31:27.051Z,97978.50
2023-06-29T18:34:28.483Z,97985.47
2023-06-29T18:37:29.949Z,97980.97
2023-06-29T18:40:33.397Z,97980.47
2023-06-29T18:43:34.828Z,97977.88
2023-06-29T18:47:00.897Z,97978.69
2023-06-29T18:50:04.753Z,97978.59
2023-06-29T18:53:06.203Z,97979.56
2023-06-29T18:56:07.636Z,97977.00
2023-06-29T18:59:13.155Z,97977.81
2023-06-29T19:02:15.049Z,97983.22
2023-06-29T19:05:19.475Z,97976.38
2023-06-29T19:08:22.268Z,97977.59
2023-06-29T19:11:24.402Z,97976.03
2023-06-29T19:14:26.056Z,97982.00
2023-06-29T19:17:29.035Z,97983.63
2023-06-29T19:20:30.693Z,97986.22
2023-06-29T19:23:32.143Z,97985.16
2023-06-29T19:26:33.599Z,97989.97
2023-06-29T19:29:35.088Z,97999.31
2023-06-29T19:32:37.916Z,98000.06
2023-06-29T19:35:39.439Z,98004.41
2023-06-29T19:38:40.866Z,98006.63
2023-06-29T19:41:42.249Z,98007.22
2023-06-29T19:44:43.656Z,98014.22
2023-06-29T19:47:45.141Z,98015.22
2023-06-29T19:50:46.667Z,98014.22
2023-06-29T19:53:48.095Z,98019.50
2023-06-29T19:56:49.752Z,98017.34
2023-06-29T19:59:51.230Z,98019.16
2023-06-29T20:02:53.440Z,98014.44
2023-06-29T20:05:54.968Z,98025.09
2023-06-29T20:08:56.408Z,98013.63
2023-06-29T20:11:57.917Z,98015.69
2023-06-29T20:14:59.358Z,98014.28
2023-06-29T20:18:00.826Z,98012.47
2023-06-29T20:21:02.399Z,98012.69
2023-06-29T20:24:04.166Z,98013.28
2023-06-29T20:27:08.700Z,98014.72
2023-06-29T20:30:10.160Z,98024.53
2023-06-29T20:33:11.641Z,98013.75
2023-06-29T20:36:14.078Z,98018.03
2023-06-29T20:39:15.636Z,98018.84
2023-06-29T20:42:17.049Z,98015.16
2023-06-29T20:45:18.593Z,98023.34
2023-06-29T20:48:20.028Z,98017.22
2023-06-29T20:51:21.440Z,98020.69
2023-06-29T20:54:22.872Z,98018.25
2023-06-29T20:57:24.464Z,98013.75
2023-06-29T21:00:26.691Z,98004.97
2023-06-29T21:03:29.876Z,98002.53
2023-06-29T21:06:31.403Z,98005.56
2023-06-29T21:09:33.521Z,98005.78
2023-06-29T21:12:35.638Z,97998.66
2023-06-29T21:15:37.111Z,98000.69
2023-06-29T21:18:38.847Z,97999.88
2023-06-29T21:21:41.225Z,97996.19
2023-06-29T21:24:42.884Z,98000.06
2023-06-29T21:27:44.615Z,97999.88
2023-06-29T21:30:46.347Z,98007.22
2023-06-29T21:33:48.181Z,98004.13
2023-06-29T21:36:49.839Z,98006.19
2023-06-29T21:39:51.311Z,98006.78
2023-06-29T21:42:52.844Z,98006.78
2023-06-29T21:45:54.329Z,97999.03
2023-06-29T21:48:55.806Z,98001.47
2023-06-29T21:51:57.317Z,97998.56
2023-06-29T21:54:58.764Z,97997.59
2023-06-29T21:58:00.206Z,97993.91
2023-06-29T22:01:02.790Z,97988.78
2023-06-29T22:04:04.443Z,97995.09
2023-06-29T22:07:15.526Z,97995.28
2023-06-29T22:10:18.347Z,97989.56
2023-06-29T22:13:24.117Z,97995.50
2023-06-29T22:16:26.029Z,97992.84
2023-06-29T22:19:27.887Z,97993.44
2023-06-29T22:22:29.315Z,97992.63
2023-06-29T22:25:30.775Z,97995.50
2023-06-29T22:28:32.225Z,97988.56
2023-06-29T22:31:33.709Z,97985.25
2023-06-29T22:34:35.153Z,97993.41
2023-06-29T22:37:36.729Z,97992.78
2023-06-29T22:40:38.247Z,97993.00
2023-06-29T22:43:40.521Z,97993.19
2023-06-29T22:46:42.043Z,97999.75
2023-06-29T22:49:43.539Z,97998.50
2023-06-29T22:52:45.063Z,97991.16
2023-06-29T22:55:46.671Z,97995.44
2023-06-29T22:59:05.444Z,97989.47
2023-06-29T23:02:06.911Z,97981.69
2023-06-29T23:05:09.322Z,97988.00
2023-06-29T23:08:12.345Z,97982.91
2023-06-29T23:11:13.847Z,97989.19
2023-06-29T23:14:16.533Z,97985.66
2023-06-29T23:17:23.369Z,97986.25
2023-06-29T23:20:25.760Z,97981.09
2023-06-29T23:23:27.198Z,97982.59
2023-06-29T23:26:28.605Z,97988.44
2023-06-29T23:29:30.066Z,97985.44
2023-06-29T23:32:31.525Z,97981.88
2023-06-29T23:35:33.011Z,97987.53
2023-06-29T23:38:34.709Z,97980.41
2023-06-29T23:41:36.131Z,97980.38
2023-06-29T23:44:41.721Z,97973.81
2023-06-29T23:47:44.303Z,97977.25
2023-06-29T23:50:45.797Z,97981.84
2023-06-29T23:53:47.225Z,97981.13
2023-06-29T23:56:52.659Z,97978.34
2023-06-29T23:59:54.200Z,97971.34
